createdAt,value
2023-05-11T11:33:03.077Z,81.8040
2023-05-11T11:34:04.762Z,81.9728
2023-05-11T11:35:05.313Z,82.5759
2023-05-11T11:36:05.871Z,83.8589
2023-05-11T11:37:06.480Z,84.5901
2023-05-11T11:38:07.137Z,82.6857
2023-05-11T11:39:07.467Z,82.7906
2023-05-11T11:40:14.748Z,84.0136
2023-05-11T11:41:08.301Z,84.0860
2023-05-11T11:42:08.572Z,83.5100
2023-05-11T11:43:08.865Z,84.1276
2023-05-11T11:44:09.227Z,83.8658
2023-05-11T11:45:09.569Z,85.2309
2023-05-11T11:46:09.942Z,86.1450
2023-05-11T11:47:10.346Z,86.3860
2023-05-11T11:48:10.731Z,86.6783
2023-05-11T11:49:11.046Z,87.0308
2023-05-11T11:50:11.370Z,87.7826
2023-05-11T11:54:40.600Z,89.4172
2023-05-11T11:55:40.975Z,89.2589
2023-05-11T11:56:41.355Z,89.8101
2023-05-11T11:57:42.077Z,90.1373
2023-05-11T11:58:42.465Z,90.7713
2023-05-11T11:59:42.840Z,90.0811
2023-05-11T12:00:43.250Z,90.6947
2023-05-11T12:01:43.655Z,90.4576
2023-05-11T12:02:44.164Z,91.2820
2023-05-11T12:03:44.815Z,91.0209
2023-05-11T12:04:45.459Z,90.9247
2023-05-11T12:05:45.786Z,90.9805
2023-05-11T12:06:46.162Z,90.4742
2023-05-11T12:07:46.662Z,90.9167
2023-05-11T12:08:47.125Z,91.2600
2023-05-11T12:09:47.780Z,90.8858
2023-05-11T12:10:48.179Z,91.3928
2023-05-11T12:11:48.533Z,90.6639
2023-05-11T12:12:48.925Z,90.9065
2023-05-11T12:13:49.306Z,91.4028
2023-05-11T12:14:49.764Z,91.6826
2023-05-11T12:15:50.146Z,91.0828
2023-05-11T12:16:50.602Z,91.0514
2023-05-11T12:17:50.991Z,90.8398
2023-05-11T12:18:51.400Z,91.1472
2023-05-11T12:19:51.778Z,91.3465
2023-05-11T12:20:52.139Z,91.3183
2023-05-11T12:21:52.579Z,91.7366
2023-05-11T12:22:53.162Z,90.9161
2023-05-11T12:23:53.484Z,91.0812
2023-05-11T12:24:53.852Z,91.8120
2023-05-11T12:25:54.240Z,91.3385
2023-05-11T12:26:54.597Z,91.6844
2023-05-11T12:27:55.285Z,91.6061
2023-05-11T12:28:55.636Z,92.0138
2023-05-11T12:29:56.022Z,92.4295
2023-05-11T12:30:58.299Z,91.5296
2023-05-11T12:31:57.461Z,91.8040
2023-05-11T12:32:58.080Z,92.3103
2023-05-11T12:33:58.536Z,92.8877
2023-05-11T12:34:58.899Z,91.9750
2023-05-11T12:35:59.306Z,92.6140
2023-05-11T12:37:00.518Z,92.1856
2023-05-11T12:38:01.044Z,92.6633
2023-05-11T12:39:01.433Z,92.7427
2023-05-11T12:40:01.881Z,92.8828
2023-05-11T12:41:02.266Z,93.2339
2023-05-11T12:42:02.708Z,93.5942
2023-05-11T12:43:03.095Z,93.1690
2023-05-11T12:44:03.456Z,92.8606
2023-05-11T12:45:03.870Z,92.5764
2023-05-11T12:46:04.269Z,92.5416
2023-05-11T12:47:04.660Z,92.6590
2023-05-11T12:48:05.071Z,92.2823
2023-05-11T12:49:05.471Z,92.3249
2023-05-11T12:50:06.028Z,91.7636
2023-05-11T12:51:06.664Z,90.0046
2023-05-11T12:52:06.956Z,90.2899
2023-05-11T12:53:07.331Z,90.0793
2023-05-11T12:54:07.726Z,89.6361
2023-05-11T12:55:08.141Z,89.3328
2023-05-11T12:56:08.504Z,88.8826
2023-05-11T12:57:08.958Z,89.6529
2023-05-11T12:58:09.342Z,88.8477
2023-05-11T12:59:09.716Z,87.8739
2023-05-11T13:00:10.117Z,87.9821
2023-05-11T13:01:10.536Z,87.1566
2023-05-11T13:02:10.978Z,85.6348
2023-05-11T13:03:11.386Z,85.5677
2023-05-11T13:04:11.733Z,85.7376
2023-05-11T13:05:12.129Z,86.6772
2023-05-11T13:06:12.480Z,86.4732
2023-05-11T13:07:12.828Z,86.7217
2023-05-11T13:08:13.235Z,86.2034
2023-05-11T13:09:13.624Z,86.1788
2023-05-11T13:10:13.963Z,84.8962
2023-05-11T13:11:14.340Z,84.8089
2023-05-11T13:12:14.709Z,85.0834
2023-05-11T13:13:15.053Z,84.3712
2023-05-11T13:14:15.513Z,84.8181
2023-05-11T13:15:15.894Z,82.8681
2023-05-11T13:16:16.193Z,83.9307
2023-05-11T13:17:19.835Z,83.6311
2023-05-11T13:18:24.155Z,83.7790
2023-05-11T13:19:26.328Z,84.3344
2023-05-11T13:20:26.616Z,82.7770
2023-05-11T13:21:26.982Z,83.9868
2023-05-11T13:22:27.400Z,82.6392
2023-05-11T13:23:27.834Z,83.8230
2023-05-11T13:24:28.182Z,83.1447
2023-05-11T13:25:28.545Z,82.3245
2023-05-11T13:26:28.873Z,81.6231
2023-05-11T13:27:29.212Z,83.1018
2023-05-11T13:28:29.555Z,81.7281
2023-05-11T13:29:29.832Z,83.6892
2023-05-11T13:30:31.224Z,81.3144
2023-05-11T13:31:32.633Z,78.5224
2023-05-11T13:32:33.032Z,78.6396
2023-05-11T13:33:33.752Z,77.7362
2023-05-11T13:34:34.202Z,78.3287
2023-05-11T13:35:34.529Z,78.4921
2023-05-11T13:36:34.931Z,80.2010
2023-05-11T13:37:35.259Z,78.9986
2023-05-11T13:38:35.609Z,75.1192
2023-05-11T13:39:35.950Z,77.0123
2023-05-11T13:40:36.258Z,77.3387
2023-05-11T13:41:36.571Z,76.6311
2023-05-11T13:42:36.944Z,76.2865
2023-05-11T13:43:37.272Z,76.7502
2023-05-11T13:45:37.752Z,77.0989
2023-05-11T13:46:38.120Z,76.1673
2023-05-11T13:47:38.493Z,77.1766
2023-05-11T13:48:38.772Z,78.0017
2023-05-11T13:49:39.171Z,75.7041
2023-05-11T13:50:39.497Z,77.2299
2023-05-11T13:51:39.797Z,74.6989
2023-05-11T13:52:40.081Z,76.0361
2023-05-11T13:53:40.361Z,76.1257
2023-05-11T13:54:41.097Z,75.0183
2023-05-11T13:55:41.339Z,75.5611
2023-05-11T13:56:41.786Z,76.3621
2023-05-11T13:59:43.035Z,74.9331
2023-05-11T14:00:50.421Z,74.7213
2023-05-11T14:01:44.392Z,75.6970
2023-05-11T14:02:44.692Z,76.7472
2023-05-11T14:03:44.937Z,78.6082
2023-05-11T14:04:45.790Z,77.7321
2023-05-11T14:05:46.906Z,76.4711
2023-05-11T14:06:47.139Z,77.4475
2023-05-11T14:07:48.697Z,78.5616
2023-05-11T14:08:49.734Z,76.7684
2023-05-11T14:09:50.684Z,77.7885
2023-05-11T14:10:50.970Z,75.7620
2023-05-11T14:11:52.085Z,76.3916
2023-05-11T14:12:52.287Z,73.9782
2023-05-11T14:13:52.527Z,75.6412
2023-05-11T14:14:58.202Z,76.8909
2023-05-11T14:17:55.246Z,77.4283
2023-05-11T14:18:55.556Z,77.8234
2023-05-11T14:19:55.825Z,80.2037
2023-05-11T14:20:56.117Z,78.5635
2023-05-11T14:21:56.425Z,77.2991
2023-05-11T14:22:56.707Z,75.3238
2023-05-11T14:24:10.651Z,78.3165
2023-05-11T14:24:57.416Z,77.5943
2023-05-11T14:25:57.621Z,78.2163
2023-05-11T14:26:57.820Z,79.3483
2023-05-11T14:27:57.995Z,79.9309
2023-05-11T14:28:58.218Z,79.5710
2023-05-11T14:29:58.672Z,79.0337
2023-05-11T14:30:58.933Z,78.8471
2023-05-11T14:31:59.142Z,79.1403
2023-05-11T14:32:59.422Z,79.3046
2023-05-11T14:33:59.705Z,79.9520
2023-05-11T14:34:59.933Z,79.8296
2023-05-11T14:36:00.139Z,80.8639
2023-05-11T14:37:00.355Z,80.7109
2023-05-11T14:38:00.640Z,80.7168
2023-05-11T14:39:01.045Z,79.7684
2023-05-11T14:40:01.309Z,81.3142
2023-05-11T14:41:01.518Z,80.4009
2023-05-11T14:42:01.774Z,78.5494
2023-05-11T14:43:02.014Z,79.5979
2023-05-11T14:44:02.268Z,78.7392
2023-05-11T14:45:02.511Z,77.3191
2023-05-11T14:46:02.791Z,76.6995
2023-05-11T14:47:03.003Z,80.8097
2023-05-11T14:48:03.327Z,80.2114
2023-05-11T14:49:03.614Z,78.4715
2023-05-11T14:50:03.875Z,78.8458
2023-05-11T14:51:04.111Z,78.8865
2023-05-11T14:52:04.415Z,78.8597
2023-05-11T14:53:04.598Z,77.7031
2023-05-11T14:54:04.860Z,77.4182
2023-05-11T14:55:05.122Z,76.5480
2023-05-11T14:56:05.325Z,75.0779
2023-05-11T14:57:05.576Z,76.6890
2023-05-11T14:58:05.799Z,76.0480
2023-05-11T14:59:06.012Z,79.1204
2023-05-11T15:00:06.267Z,77.8094
2023-05-11T15:01:06.488Z,77.4384
2023-05-11T15:02:06.811Z,77.3246
2023-05-11T15:03:07.081Z,75.3780
2023-05-11T15:04:07.382Z,74.7025
2023-05-11T15:05:07.692Z,75.6853
2023-05-11T15:06:07.920Z,76.8676
2023-05-11T15:07:08.140Z,76.9358
2023-05-11T15:08:18.296Z,79.7331
2023-05-11T15:09:08.815Z,79.5858
2023-05-11T15:10:09.052Z,79.4257
2023-05-11T15:11:09.328Z,79.6835
2023-05-11T15:12:09.553Z,79.0010
2023-05-11T15:13:09.758Z,79.5868
2023-05-11T15:14:10.040Z,79.6149
2023-05-11T15:15:10.248Z,78.8440
2023-05-11T15:16:10.540Z,78.6525
2023-05-11T15:17:10.789Z,78.1896
2023-05-11T15:18:11.079Z,78.4655
2023-05-11T15:19:11.373Z,80.3650
2023-05-11T15:20:11.662Z,77.6171
2023-05-11T15:21:11.896Z,77.7906
2023-05-11T15:22:12.154Z,77.6375
2023-05-11T15:23:12.402Z,78.0767
2023-05-11T15:24:12.701Z,78.9284
2023-05-11T15:25:12.946Z,79.3769
2023-05-11T15:26:13.204Z,81.5193
2023-05-11T15:27:13.511Z,82.1465
2023-05-11T15:28:13.819Z,81.2759
2023-05-11T15:29:14.073Z,79.8415
2023-05-11T15:30:14.408Z,78.9808
2023-05-11T15:31:14.636Z,75.9856
2023-05-11T15:32:14.857Z,74.6480
2023-05-11T15:33:15.197Z,75.1260
2023-05-11T15:34:15.457Z,77.5737
2023-05-11T15:35:15.732Z,75.5898
2023-05-11T15:36:16.012Z,76.8908
2023-05-11T15:37:16.278Z,79.1222
2023-05-11T15:38:16.536Z,77.5826
2023-05-11T15:39:16.816Z,77.3883
2023-05-11T15:40:17.119Z,77.1161
2023-05-11T15:41:17.391Z,75.4625
2023-05-11T15:42:17.694Z,74.1623
2023-05-11T15:43:18.029Z,76.5241
2023-05-11T15:44:18.325Z,73.6007
2023-05-11T15:45:18.746Z,73.0559
2023-05-11T15:47:19.561Z,76.1979
2023-05-11T15:48:19.890Z,76.2624
2023-05-11T15:49:20.162Z,76.4078
2023-05-11T15:50:20.782Z,75.4044
2023-05-11T15:51:21.527Z,77.5962
2023-05-11T15:52:21.869Z,76.6166
2023-05-11T15:53:22.291Z,77.3450
2023-05-11T15:54:22.619Z,77.5992
2023-05-11T15:55:22.970Z,78.2274
2023-05-11T15:56:23.264Z,78.1279
2023-05-11T15:57:23.534Z,78.0559
2023-05-11T15:58:23.997Z,76.9722
2023-05-11T15:59:24.335Z,76.3949
2023-05-11T16:00:24.690Z,76.1197
2023-05-11T16:01:25.161Z,76.3976
2023-05-11T16:02:25.644Z,76.1169
2023-05-11T16:03:26.118Z,76.1686
2023-05-11T16:04:26.821Z,75.9334
2023-05-11T16:05:27.168Z,75.3608
2023-05-11T16:06:27.509Z,75.4061
2023-05-11T16:07:27.833Z,76.3013
2023-05-11T16:08:28.173Z,73.9871
2023-05-11T16:09:28.502Z,74.8283
2023-05-11T16:10:28.959Z,77.2992
2023-05-11T16:11:29.306Z,77.6718
2023-05-11T16:12:29.906Z,75.4825
2023-05-11T16:13:30.244Z,76.6157
2023-05-11T16:14:30.567Z,75.4642
2023-05-11T16:15:30.892Z,73.4333
2023-05-11T16:16:31.274Z,73.1361
2023-05-11T16:17:31.596Z,74.2881
2023-05-11T16:18:31.952Z,76.0512
2023-05-11T16:19:32.253Z,74.3476
2023-05-11T16:20:32.592Z,75.3941
2023-05-11T16:21:32.941Z,76.2575
2023-05-11T16:22:33.254Z,74.3174
2023-05-11T16:23:33.599Z,74.5516
2023-05-11T16:24:34.724Z,74.9583
2023-05-11T16:25:35.215Z,75.7980
2023-05-11T16:26:35.573Z,75.9553
2023-05-11T16:27:35.876Z,75.9655
2023-05-11T16:28:36.168Z,75.2382
2023-05-11T16:29:36.512Z,74.5775
2023-05-11T16:30:36.846Z,74.9989
2023-05-11T16:31:37.246Z,74.1248
2023-05-11T16:32:37.617Z,74.7379
2023-05-11T16:33:37.953Z,75.6547
2023-05-11T16:34:38.481Z,77.2598
2023-05-11T16:35:38.886Z,78.2562
2023-05-11T16:36:39.267Z,79.1348
2023-05-11T16:37:39.582Z,79.2179
2023-05-11T16:38:39.900Z,78.7607
2023-05-11T16:39:40.248Z,78.9257
2023-05-11T16:40:40.586Z,78.4805
2023-05-11T16:41:40.928Z,78.5884
2023-05-11T16:42:41.285Z,79.8111
2023-05-11T16:43:41.544Z,80.0796
2023-05-11T16:44:42.071Z,80.0145
2023-05-11T16:45:42.454Z,80.2311
2023-05-11T16:46:42.912Z,80.9323
2023-05-11T16:47:43.379Z,82.8753
2023-05-11T16:48:44.627Z,82.7487
2023-05-11T16:49:45.009Z,82.2356
2023-05-11T16:50:45.392Z,82.4155
2023-05-11T16:51:45.802Z,83.1378
2023-05-11T16:52:46.245Z,81.8144
2023-05-11T16:53:46.613Z,83.3318
2023-05-11T16:54:46.987Z,84.5342
2023-05-11T16:55:47.358Z,85.6003
2023-05-11T16:56:47.785Z,85.2659
2023-05-11T16:57:48.150Z,85.4436
2023-05-11T16:58:48.525Z,87.8492
2023-05-11T16:59:48.876Z,87.8130
2023-05-11T17:00:49.266Z,87.6929
2023-05-11T17:01:49.842Z,87.6406
2023-05-11T17:02:50.321Z,88.4312
2023-05-11T17:03:50.797Z,90.2437
2023-05-11T17:04:51.335Z,89.2817
2023-05-11T17:05:51.690Z,89.3023
2023-05-11T17:06:52.112Z,90.4564
2023-05-11T17:08:52.810Z,89.0493
2023-05-11T17:09:53.144Z,89.8854
2023-05-11T17:10:53.499Z,90.2434
2023-05-11T17:11:53.807Z,91.2543
2023-05-11T17:12:55.037Z,90.7907
2023-05-11T17:13:56.295Z,91.3313
2023-05-11T17:14:56.794Z,90.8684
2023-05-11T17:15:57.124Z,90.8813
2023-05-11T17:16:57.485Z,91.3275
2023-05-11T17:17:57.973Z,91.9718
2023-05-11T17:18:59.128Z,92.1718
2023-05-11T17:19:59.673Z,92.1555
2023-05-11T17:21:00.029Z,92.5113
2023-05-11T17:22:00.368Z,92.8912
2023-05-11T17:23:00.714Z,91.9394
2023-05-11T17:24:01.121Z,92.4711
2023-05-11T17:25:01.511Z,92.9588
2023-05-11T17:26:01.952Z,93.4784
2023-05-11T17:27:02.300Z,92.2624
2023-05-11T17:28:02.779Z,91.8645
2023-05-11T17:29:03.201Z,91.8504
2023-05-11T17:30:03.610Z,91.7730
2023-05-11T17:31:04.154Z,92.2566
2023-05-11T17:32:04.833Z,92.6357
2023-05-11T17:33:06.189Z,91.9873
2023-05-11T17:34:06.822Z,92.1726
2023-05-11T17:35:07.284Z,93.0209
2023-05-11T17:36:07.670Z,93.6510
2023-05-11T17:37:12.630Z,93.2701
2023-05-11T17:38:08.752Z,93.9123
2023-05-11T17:39:09.281Z,94.2099
2023-05-11T17:40:09.678Z,94.3463
2023-05-11T17:41:10.115Z,94.2439
2023-05-11T17:42:12.148Z,94.3673
2023-05-11T17:43:12.623Z,94.1260
2023-05-11T17:44:13.204Z,93.2772
2023-05-11T17:45:13.556Z,91.8015
2023-05-11T17:46:13.963Z,91.3992
2023-05-11T17:47:14.309Z,91.5045
2023-05-11T17:48:14.663Z,92.1013
2023-05-11T17:49:16.825Z,92.0748
2023-05-11T17:50:17.839Z,92.2496
2023-05-11T17:51:18.158Z,92.6421
2023-05-11T17:52:19.134Z,93.3078
2023-05-11T17:53:19.487Z,93.7941
2023-05-11T17:54:20.347Z,94.6698
2023-05-11T17:55:21.579Z,95.1186
2023-05-11T17:56:22.139Z,95.1003
2023-05-11T17:57:23.168Z,95.5162
2023-05-11T17:58:24.720Z,95.6011
2023-05-11T17:59:25.083Z,95.4277
2023-05-11T18:00:25.442Z,95.4723
2023-05-11T18:01:25.833Z,95.4788
2023-05-11T18:02:26.845Z,95.9143
2023-05-11T18:03:28.162Z,96.2298
2023-05-11T18:04:28.600Z,96.2972
2023-05-11T18:05:40.548Z,95.9791
2023-05-11T18:06:30.845Z,95.8134
2023-05-11T18:07:31.190Z,96.0126
2023-05-11T18:08:32.660Z,95.9255
2023-05-11T18:09:35.108Z,96.0166
2023-05-11T18:10:36.050Z,96.3374
2023-05-11T18:11:36.436Z,96.6201
2023-05-11T18:12:37.386Z,96.7266
2023-05-11T18:13:40.355Z,96.9706
2023-05-11T18:15:38.731Z,96.6577
2023-05-11T18:16:39.129Z,96.5363
2023-05-11T18:17:40.192Z,96.1100
2023-05-11T18:18:41.166Z,95.6425
2023-05-11T18:19:41.492Z,96.1317
2023-05-11T18:20:42.529Z,96.2559
2023-05-11T18:21:43.478Z,96.4565
2023-05-11T18:22:43.824Z,96.6413
2023-05-11T18:23:44.843Z,96.8363
2023-05-11T18:24:45.708Z,96.7928
2023-05-11T18:25:46.047Z,96.7094
2023-05-11T18:26:46.662Z,96.8422
2023-05-11T18:27:47.644Z,96.9584
2023-05-11T18:28:48.866Z,97.0889
2023-05-11T18:29:49.210Z,97.1853
2023-05-11T18:30:50.208Z,97.2522
2023-05-11T18:31:50.579Z,97.2707
2023-05-11T18:32:51.605Z,97.1511
2023-05-11T18:33:52.878Z,97.2349
2023-05-11T18:34:53.257Z,97.3082
2023-05-11T18:35:54.285Z,97.4715
2023-05-11T18:36:54.628Z,97.6312
2023-05-11T18:37:55.040Z,97.6754
2023-05-11T18:38:56.384Z,97.7126
2023-05-11T18:39:56.745Z,97.8028
2023-05-11T18:40:57.128Z,97.8234
2023-05-11T18:41:57.646Z,97.8897
2023-05-11T18:42:58.685Z,97.8867
2023-05-11T18:43:59.957Z,97.9720
2023-05-11T18:45:00.358Z,98.0730
2023-05-11T18:46:01.298Z,98.0761
2023-05-11T18:47:02.585Z,98.0604
2023-05-11T18:49:03.765Z,98.2659
2023-05-11T18:50:05.418Z,98.3271
2023-05-11T18:51:06.641Z,98.3595
2023-05-11T18:52:07.851Z,98.3786
2023-05-11T18:53:08.785Z,98.3889
2023-05-11T18:54:09.281Z,98.4533
2023-05-11T18:55:09.602Z,98.5149
2023-05-11T18:56:09.986Z,98.5309
2023-05-11T18:57:10.378Z,98.5874
2023-05-11T18:58:11.428Z,98.6088
2023-05-11T18:59:12.342Z,98.6042
2023-05-11T19:00:12.708Z,98.5882
2023-05-11T19:01:13.898Z,98.5936
2023-05-11T19:02:14.312Z,98.6294
2023-05-11T19:03:16.100Z,98.6765
2023-05-11T19:04:17.199Z,98.7443
2023-05-11T19:05:17.623Z,98.8026
2023-05-11T19:06:18.542Z,98.7845
2023-05-11T19:07:20.313Z,98.7624
2023-05-11T19:08:20.929Z,98.7803
2023-05-11T19:09:21.891Z,98.7631
2023-05-11T19:10:22.370Z,98.6701
2023-05-11T19:12:24.145Z,98.6857
2023-05-11T19:13:25.844Z,98.7354
2023-05-11T19:14:26.228Z,98.6850
2023-05-11T19:15:27.226Z,98.6962
2023-05-11T19:16:28.372Z,98.7553
2023-05-11T19:17:29.215Z,98.6893
2023-05-11T19:18:30.609Z,98.6042
2023-05-11T19:19:31.034Z,98.5383
2023-05-11T19:20:32.075Z,98.4708
2023-05-11T19:21:32.500Z,98.4677
2023-05-11T19:22:32.863Z,98.4314
2023-05-11T19:23:33.269Z,98.3886
2023-05-11T19:24:33.642Z,98.3534
2023-05-11T19:25:33.985Z,98.2892
2023-05-11T19:26:34.336Z,98.1598
2023-05-11T19:27:35.462Z,98.0472
2023-05-11T19:28:36.397Z,97.9685
2023-05-11T19:29:36.758Z,97.9394
2023-05-11T19:30:37.823Z,97.9689
2023-05-11T19:31:38.852Z,97.9057
2023-05-11T19:32:39.263Z,97.8810
2023-05-11T19:33:40.161Z,97.8761
2023-05-11T19:34:40.507Z,97.8369
2023-05-11T19:35:41.530Z,97.9023
2023-05-11T19:36:41.884Z,97.9267
2023-05-11T19:37:42.251Z,97.9597
2023-05-11T19:38:42.601Z,97.8979
2023-05-11T19:39:43.005Z,98.0027
2023-05-11T19:40:46.420Z,98.0712
2023-05-11T19:41:45.191Z,97.9477
2023-05-11T19:42:45.565Z,98.0396
2023-05-11T19:43:46.296Z,97.9681
2023-05-11T19:44:46.682Z,97.9036
2023-05-11T19:45:47.149Z,97.7921
2023-05-11T19:46:48.189Z,97.8002
2023-05-11T19:47:49.252Z,97.7600
2023-05-11T19:48:49.615Z,97.7318
2023-05-11T19:49:50.576Z,97.7933
2023-05-11T19:50:50.980Z,97.8128
2023-05-11T19:51:51.592Z,97.8678
2023-05-11T19:52:51.968Z,97.9421
2023-05-11T19:53:52.390Z,98.0785
2023-05-11T19:54:53.575Z,98.1908
2023-05-11T19:55:55.286Z,98.2561
2023-05-11T19:56:55.654Z,98.2675
2023-05-11T19:57:56.715Z,98.4190
2023-05-11T19:58:57.692Z,98.5492
2023-05-11T19:59:58.064Z,98.5607
2023-05-11T20:00:59.298Z,98.5957
2023-05-11T20:02:00.460Z,98.5975
2023-05-11T20:03:01.064Z,98.6031
2023-05-11T20:04:02.326Z,98.6337
2023-05-11T20:05:03.636Z,98.6627
2023-05-11T20:06:04.014Z,98.6893
2023-05-11T20:07:04.994Z,98.7792
2023-05-11T20:08:05.389Z,98.8707
2023-05-11T20:09:06.433Z,98.9207
2023-05-11T20:10:07.385Z,98.9479
2023-05-11T20:11:07.795Z,98.9715
2023-05-11T20:13:09.019Z,98.9520
2023-05-11T20:14:09.404Z,98.9729
2023-05-11T20:15:10.392Z,98.9936
2023-05-11T20:16:11.689Z,99.0169
2023-05-11T20:17:12.081Z,99.0638
2023-05-11T20:18:13.348Z,99.1092
2023-05-11T20:19:13.861Z,99.1282
2023-05-11T20:20:14.303Z,99.1618
2023-05-11T20:21:15.406Z,99.2022
2023-05-11T20:22:15.751Z,99.1803
2023-05-11T20:23:16.124Z,99.1804
2023-05-11T20:24:17.162Z,99.1833
2023-05-11T20:25:19.019Z,99.2038
2023-05-11T20:27:20.807Z,99.2644
2023-05-11T20:28:22.234Z,99.2966
2023-05-11T20:29:22.678Z,99.3060
2023-05-11T20:30:23.720Z,99.3028
2023-05-11T20:31:24.366Z,99.3463
2023-05-11T20:32:24.750Z,99.3493
2023-05-11T20:34:26.819Z,99.2822
2023-05-11T20:35:27.162Z,99.2447
2023-05-11T20:36:29.088Z,99.2564
2023-05-11T20:37:29.465Z,99.2963
2023-05-11T20:38:29.817Z,99.3412
2023-05-11T20:39:30.189Z,99.3837
2023-05-11T20:40:30.765Z,99.4000
2023-05-11T20:41:31.912Z,99.4241
2023-05-11T20:42:32.738Z,99.4679
2023-05-11T20:43:33.104Z,99.5077
2023-05-11T20:44:34.128Z,99.5384
2023-05-11T20:45:35.137Z,99.5270
2023-05-11T20:46:36.204Z,99.5544
2023-05-11T20:47:36.618Z,99.5716
2023-05-11T20:48:41.057Z,99.5911
2023-05-11T20:49:39.728Z,99.6043
2023-05-11T20:50:40.067Z,99.5943
2023-05-11T20:51:41.168Z,99.6046
2023-05-11T20:52:42.178Z,99.6063
2023-05-11T20:53:43.732Z,99.6224
2023-05-11T20:54:44.190Z,99.6115
2023-05-11T20:55:45.285Z,99.6300
2023-05-11T20:56:45.864Z,99.6272
2023-05-11T20:57:46.306Z,99.6469
2023-05-11T20:58:46.712Z,99.6481
2023-05-11T21:00:48.252Z,99.6410
2023-05-11T21:01:49.250Z,99.6375
2023-05-11T21:02:49.865Z,99.6204
2023-05-11T21:03:50.346Z,99.5794
2023-05-11T21:04:51.058Z,99.5565
2023-05-11T21:05:51.583Z,99.5174
2023-05-11T21:06:52.677Z,99.4738
2023-05-11T21:07:53.180Z,99.4199
2023-05-11T21:08:54.230Z,99.3894
2023-05-11T21:09:55.393Z,99.3709
2023-05-11T21:10:55.838Z,99.3675
2023-05-11T21:11:56.919Z,99.3491
2023-05-11T21:12:58.050Z,99.3846
2023-05-11T21:13:58.454Z,99.4347
2023-05-11T21:14:59.592Z,99.4616
2023-05-11T21:16:00.831Z,99.4887
2023-05-11T21:17:01.280Z,99.4930
2023-05-11T21:18:02.622Z,99.4920
2023-05-11T21:19:03.165Z,99.4849
2023-05-11T21:20:03.639Z,99.4838
2023-05-11T21:21:04.607Z,99.4766
2023-05-11T21:22:05.016Z,99.4276
2023-05-11T21:23:06.105Z,99.4154
2023-05-11T21:24:07.288Z,99.4103
2023-05-11T21:25:07.726Z,99.4303
2023-05-11T21:26:08.608Z,99.3812
2023-05-11T21:27:09.807Z,99.3275
2023-05-11T21:28:10.252Z,99.2906
2023-05-11T21:29:11.377Z,99.2923
2023-05-11T21:30:11.903Z,99.3015
2023-05-11T21:31:12.369Z,99.2110
2023-05-11T21:32:13.870Z,99.2129
2023-05-11T21:33:14.363Z,99.2260
2023-05-11T21:34:14.757Z,99.1904
2023-05-11T21:35:15.221Z,99.1709
2023-05-11T21:36:15.697Z,99.1570
2023-05-11T21:37:16.808Z,99.1473
2023-05-11T21:38:17.800Z,99.1236
2023-05-11T21:39:18.224Z,99.1318
2023-05-11T21:40:19.822Z,99.1522
2023-05-11T21:41:20.384Z,99.1093
2023-05-11T21:42:20.973Z,99.0994
2023-05-11T21:43:21.381Z,99.1293
2023-05-11T21:44:21.801Z,99.1580
2023-05-11T21:45:22.804Z,99.1771
2023-05-11T21:46:23.260Z,99.1865
2023-05-11T21:47:23.707Z,99.2121
2023-05-11T21:48:24.720Z,99.2564
2023-05-11T21:49:25.285Z,99.2780
2023-05-11T21:51:26.237Z,99.3146
2023-05-11T21:52:27.300Z,99.2984
2023-05-11T21:53:27.734Z,99.2888
2023-05-11T21:54:28.710Z,99.2756
2023-05-11T21:55:29.130Z,99.2641
2023-05-11T21:56:30.340Z,99.2876
2023-05-11T21:57:31.319Z,99.2821
2023-05-11T21:58:31.741Z,99.2628
2023-05-11T21:59:32.173Z,99.2756
2023-05-11T22:00:32.599Z,99.2665
2023-05-11T22:01:33.042Z,99.2477
2023-05-11T22:02:34.089Z,99.2065
2023-05-11T22:03:34.579Z,99.2000
2023-05-11T22:04:35.723Z,99.1698
2023-05-11T22:05:36.813Z,99.1244
2023-05-11T22:06:38.061Z,99.1029
2023-05-11T22:07:38.490Z,99.0922
2023-05-11T22:08:39.657Z,99.0522
2023-05-11T22:09:40.105Z,99.0541
2023-05-11T22:10:41.150Z,99.0068
2023-05-11T22:11:42.489Z,99.0071
2023-05-11T22:12:44.095Z,99.0101
2023-05-11T22:13:44.597Z,99.0164
2023-05-11T22:14:44.996Z,99.0262
2023-05-11T22:15:45.393Z,99.0178
2023-05-11T22:16:46.470Z,99.0398
2023-05-11T22:17:47.502Z,99.0732
2023-05-11T22:18:47.936Z,99.1096
2023-05-11T22:19:49.142Z,99.1528
2023-05-11T22:20:50.162Z,99.1918
2023-05-11T22:21:50.645Z,99.2262
2023-05-11T22:22:52.609Z,99.2567
2023-05-11T22:23:53.072Z,99.2872
2023-05-11T22:24:53.492Z,99.3190
2023-05-11T22:25:54.484Z,99.3610
2023-05-11T22:26:54.883Z,99.3659
2023-05-11T22:27:55.293Z,99.4007
2023-05-11T22:28:56.330Z,99.3920
2023-05-11T22:29:56.762Z,99.3806
2023-05-11T22:30:57.697Z,99.3750
2023-05-11T22:31:58.868Z,99.3914
2023-05-11T22:32:59.916Z,99.3597
2023-05-11T22:34:00.333Z,99.3253
2023-05-11T22:35:01.516Z,99.2814
2023-05-11T22:36:02.595Z,99.1969
2023-05-11T22:37:03.451Z,99.1422
2023-05-11T22:38:03.838Z,99.0793
2023-05-11T22:39:04.286Z,99.0387
2023-05-11T22:41:05.879Z,99.0472
2023-05-11T22:42:06.293Z,99.0804
2023-05-11T22:43:07.320Z,99.1123
2023-05-11T22:44:08.869Z,99.1066
2023-05-11T22:45:09.904Z,99.1137
2023-05-11T22:46:10.932Z,99.1235
2023-05-11T22:47:11.314Z,99.1506
2023-05-11T22:48:12.407Z,99.1805
2023-05-11T22:49:13.473Z,99.2556
2023-05-11T22:50:13.898Z,99.3073
2023-05-11T22:51:14.809Z,99.2932
2023-05-11T22:52:15.237Z,99.2684
2023-05-11T22:53:16.281Z,99.2974
2023-05-11T22:54:17.305Z,99.4070
2023-05-11T22:55:17.794Z,99.4993
2023-05-11T22:56:19.095Z,99.5677
2023-05-11T22:57:20.152Z,99.6080
2023-05-11T22:58:21.218Z,99.6230
2023-05-11T22:59:22.249Z,99.6830
2023-05-11T23:00:22.804Z,99.7341
2023-05-11T23:01:23.361Z,99.7876
2023-05-11T23:02:23.837Z,99.8080
2023-05-11T23:03:24.375Z,99.8388
2023-05-11T23:04:25.416Z,99.8586
2023-05-11T23:05:26.456Z,99.8849
2023-05-11T23:06:26.899Z,99.9151
2023-05-11T23:07:28.158Z,99.9227
2023-05-11T23:08:29.203Z,99.9275
2023-05-11T23:09:29.643Z,99.9324
2023-05-11T23:10:30.722Z,99.9486
2023-05-11T23:11:31.281Z,99.9745
2023-05-11T23:12:32.365Z,99.9910
2023-05-11T23:13:33.158Z,99.9995
2023-05-11T23:14:33.628Z,100.0000
2023-05-11T23:15:34.072Z,100.0000
2023-05-11T23:16:35.876Z,100.0000
2023-05-11T23:17:36.478Z,100.0000
2023-05-11T23:18:37.690Z,100.0000
2023-05-11T23:19:38.348Z,100.0000
2023-05-11T23:20:38.812Z,100.0000
2023-05-11T23:21:40.216Z,100.0000
2023-05-11T23:22:40.646Z,100.0000
2023-05-11T23:23:41.618Z,100.0000
2023-05-11T23:24:42.032Z,100.0000
2023-05-11T23:25:42.450Z,100.0000
2023-05-11T23:26:43.475Z,100.0000
2023-05-11T23:27:43.896Z,100.0000
2023-05-11T23:28:45.174Z,100.0000
2023-05-11T23:29:46.153Z,100.0000
2023-05-11T23:31:47.573Z,100.0000
2023-05-11T23:32:48.026Z,100.0000
2023-05-11T23:33:49.054Z,100.0000
2023-05-11T23:34:50.340Z,100.0000
2023-05-11T23:35:51.457Z,100.0000
2023-05-11T23:36:51.940Z,100.0000
2023-05-11T23:37:52.376Z,100.0000
2023-05-11T23:38:55.782Z,100.0000
2023-05-11T23:41:54.508Z,100.0000
2023-05-11T23:42:54.966Z,100.0000
2023-05-11T23:43:55.397Z,100.0000
2023-05-11T23:44:55.824Z,100.0000
2023-05-11T23:45:56.330Z,100.0000
2023-05-11T23:46:56.855Z,100.0000
2023-05-11T23:47:57.385Z,100.0000
2023-05-11T23:48:58.406Z,100.0000
2023-05-11T23:49:59.058Z,100.0000
2023-05-11T23:50:59.935Z,100.0000
2023-05-11T23:52:01.076Z,100.0000
2023-05-11T23:53:02.054Z,100.0000
2023-05-11T23:54:02.466Z,100.0000
2023-05-11T23:55:03.505Z,100.0000
2023-05-11T23:56:04.967Z,100.0000
2023-05-11T23:57:05.384Z,100.0000
2023-05-11T23:58:06.514Z,100.0000
2023-05-11T23:59:06.941Z,100.0000
